createdAt,value
2023-07-27T00:01:21.617Z,100391.38
2023-07-27T00:03:52.236Z,100389.19
2023-07-27T00:06:20.285Z,100384.56
2023-07-27T00:08:49.675Z,100387.00
2023-07-27T00:11:17.667Z,100387.53
2023-07-27T00:13:45.659Z,100376.59
2023-07-27T00:16:13.908Z,100387.53
2023-07-27T00:18:42.056Z,100382.88
2023-07-27T00:21:10.105Z,100389.72
2023-07-27T00:23:38.326Z,100385.34
2023-07-27T00:26:07.668Z,100380.13
2023-07-27T00:28:35.726Z,100365.63
2023-07-27T00:31:03.899Z,100366.16
2023-07-27T00:33:32.012Z,100366.16
2023-07-27T00:36:00.941Z,100360.13
2023-07-27T00:38:29.468Z,100352.72
2023-07-27T00:40:57.708Z,100361.75
2023-07-27T00:43:27.153Z,100349.72
2023-07-27T00:45:56.100Z,100340.94
2023-07-27T00:48:24.363Z,100344.78
2023-07-27T00:50:54.147Z,100346.44
2023-07-27T00:53:24.553Z,100340.94
2023-07-27T00:55:53.005Z,100334.38
2023-07-27T00:58:21.244Z,100338.19
2023-07-27T01:00:50.701Z,100334.88
2023-07-27T01:03:18.965Z,100321.19
2023-07-27T01:05:47.746Z,100325.59
2023-07-27T01:08:15.750Z,100315.19
2023-07-27T01:10:59.577Z,100323.94
2023-07-27T01:13:36.674Z,100323.69
2023-07-27T01:16:12.770Z,100318.19
2023-07-27T01:18:49.853Z,100319.00
2023-07-27T01:21:22.516Z,100308.88
2023-07-27T01:24:32.120Z,100313.53
2023-07-27T01:27:22.451Z,100316.00
2023-07-27T01:30:15.810Z,100308.34
2023-07-27T01:32:50.295Z,100302.00
2023-07-27T01:35:20.605Z,100296.25
2023-07-27T01:37:53.302Z,100292.72
2023-07-27T01:40:22.995Z,100298.19
2023-07-27T01:42:52.433Z,100293.00
2023-07-27T01:45:21.783Z,100290.53
2023-07-27T01:47:53.220Z,100284.78
2023-07-27T01:50:21.540Z,100281.22
2023-07-27T01:52:50.454Z,100275.19
2023-07-27T01:55:18.727Z,100273.53
2023-07-27T01:57:48.305Z,100276.81
2023-07-27T02:00:16.924Z,100266.97
2023-07-27T02:02:47.850Z,100261.75
2023-07-27T02:05:18.497Z,100257.13
2023-07-27T02:07:48.419Z,100267.53
2023-07-27T02:10:19.182Z,100254.38
2023-07-27T02:12:51.877Z,100265.84
2023-07-27T02:15:25.475Z,100248.91
2023-07-27T02:18:00.246Z,100248.91
2023-07-27T02:20:33.819Z,100247.78
2023-07-27T02:23:03.806Z,100237.38
2023-07-27T02:25:32.155Z,100237.66
2023-07-27T02:28:00.205Z,100241.50
2023-07-27T02:30:29.031Z,100222.84
2023-07-27T02:32:57.194Z,100216.53
2023-07-27T02:35:25.305Z,100221.19
2023-07-27T02:37:57.900Z,100209.41
2023-07-27T02:40:28.209Z,100204.75
2023-07-27T02:42:56.650Z,100209.41
2023-07-27T02:45:25.566Z,100197.91
2023-07-27T02:47:54.269Z,100207.50
2023-07-27T02:50:23.240Z,100197.34
2023-07-27T02:53:11.321Z,100185.31
2023-07-27T02:55:42.806Z,100191.59
2023-07-27T02:58:11.088Z,100197.34
2023-07-27T03:00:40.236Z,100189.94
2023-07-27T03:03:09.068Z,100188.56
2023-07-27T03:05:37.079Z,100195.44
2023-07-27T03:08:05.539Z,100194.06
2023-07-27T03:10:39.413Z,100192.44
2023-07-27T03:13:07.710Z,100191.31
2023-07-27T03:15:35.715Z,100189.38
2023-07-27T03:18:03.779Z,100188.88
2023-07-27T03:20:31.874Z,100192.69
2023-07-27T03:23:00.820Z,100178.16
2023-07-27T03:25:33.505Z,100180.09
2023-07-27T03:28:03.311Z,100181.47
2023-07-27T03:30:31.426Z,100175.97
2023-07-27T03:32:59.566Z,100177.88
2023-07-27T03:35:27.655Z,100174.31
2023-07-27T03:37:55.642Z,100186.94
2023-07-27T03:40:24.332Z,100176.78
2023-07-27T03:42:52.382Z,100174.84
2023-07-27T03:45:22.658Z,100173.75
2023-07-27T03:47:50.891Z,100172.16
2023-07-27T03:50:18.925Z,100176.00
2023-07-27T03:52:48.107Z,100172.97
2023-07-27T03:55:19.667Z,100173.22
2023-07-27T03:57:49.091Z,100170.47
2023-07-27T04:00:17.172Z,100172.66
2023-07-27T04:02:49.841Z,100164.16
2023-07-27T04:05:18.086Z,100166.91
2023-07-27T04:07:46.078Z,100166.09
2023-07-27T04:10:14.058Z,100171.28
2023-07-27T04:12:42.332Z,100176.25
2023-07-27T04:15:11.440Z,100178.69
2023-07-27T04:17:39.533Z,100168.53
2023-07-27T04:20:10.496Z,100178.13
2023-07-27T04:22:37.620Z,100175.38
2023-07-27T04:25:06.545Z,100173.19
2023-07-27T04:27:34.621Z,100180.59
2023-07-27T04:30:02.694Z,100184.72
2023-07-27T04:32:31.536Z,100190.19
2023-07-27T04:35:00.078Z,100190.19
2023-07-27T04:37:29.508Z,100175.34
2023-07-27T04:39:57.508Z,100168.75
2023-07-27T04:42:25.558Z,100177.56
2023-07-27T04:44:53.545Z,100177.28
2023-07-27T04:47:21.667Z,100175.34
2023-07-27T04:49:50.162Z,100170.97
2023-07-27T04:52:18.230Z,100169.84
2023-07-27T04:54:47.644Z,100176.97
2023-07-27T04:57:15.612Z,100166.00
2023-07-27T04:59:43.783Z,100169.28
2023-07-27T05:02:11.858Z,100171.50
2023-07-27T05:04:39.974Z,100174.78
2023-07-27T05:07:08.588Z,100164.63
2023-07-27T05:09:38.277Z,100175.31
2023-07-27T05:12:08.645Z,100171.47
2023-07-27T05:14:36.681Z,100176.69
2023-07-27T05:17:04.752Z,100183.53
2023-07-27T05:19:32.741Z,100174.19
2023-07-27T05:22:00.746Z,100176.38
2023-07-27T05:24:28.870Z,100177.47
2023-07-27T05:27:01.764Z,100174.44
2023-07-27T05:29:32.217Z,100182.94
2023-07-27T05:32:00.178Z,100178.53
2023-07-27T05:34:28.412Z,100170.31
2023-07-27T05:36:59.580Z,100170.84
2023-07-27T05:39:27.725Z,100172.50
2023-07-27T05:41:55.746Z,100176.91
2023-07-27T05:44:24.045Z,100171.09
2023-07-27T05:46:56.876Z,100166.47
2023-07-27T05:49:27.767Z,100171.38
2023-07-27T05:51:55.752Z,100174.13
2023-07-27T05:54:24.004Z,100174.13
2023-07-27T05:56:52.028Z,100183.97
2023-07-27T05:59:20.093Z,100172.69
2023-07-27T06:01:48.333Z,100174.34
2023-07-27T06:04:18.380Z,100169.13
2023-07-27T06:06:48.009Z,100175.69
2023-07-27T06:09:19.499Z,100175.16
2023-07-27T06:11:47.905Z,100183.91
2023-07-27T06:14:15.970Z,100178.41
2023-07-27T06:16:44.133Z,100177.84
2023-07-27T06:19:13.968Z,100183.34
2023-07-27T06:21:55.405Z,100177.84
2023-07-27T06:24:32.868Z,100174.00
2023-07-27T06:27:05.504Z,100177.28
2023-07-27T06:29:33.928Z,100170.66
2023-07-27T06:32:03.157Z,100177.53
2023-07-27T06:34:31.484Z,100174.78
2023-07-27T06:37:00.957Z,100180.25
2023-07-27T06:39:32.038Z,100185.44
2023-07-27T06:42:00.148Z,100183.22
2023-07-27T06:44:33.340Z,100182.38
2023-07-27T06:47:07.192Z,100189.75
2023-07-27T06:49:35.799Z,100189.66
2023-07-27T06:52:09.694Z,100183.59
2023-07-27T06:54:38.130Z,100178.63
2023-07-27T06:57:11.295Z,100188.78
2023-07-27T06:59:39.761Z,100191.19
2023-07-27T07:02:10.178Z,100189.53
2023-07-27T07:04:39.253Z,100190.88
2023-07-27T07:07:15.551Z,100195.25
2023-07-27T07:09:43.720Z,100194.97
2023-07-27T07:12:23.435Z,100191.41
2023-07-27T07:14:51.627Z,100187.81
2023-07-27T07:17:21.936Z,100194.97
2023-07-27T07:19:50.057Z,100185.03
2023-07-27T07:22:19.542Z,100189.44
2023-07-27T07:24:48.207Z,100185.53
2023-07-27T07:27:16.428Z,100188.28
2023-07-27T07:29:44.552Z,100187.13
2023-07-27T07:32:12.863Z,100199.69
2023-07-27T07:34:40.967Z,100189.81
2023-07-27T07:37:09.121Z,100190.63
2023-07-27T07:39:38.515Z,100189.81
2023-07-27T07:42:06.824Z,100184.81
2023-07-27T07:44:37.594Z,100193.03
2023-07-27T07:47:05.815Z,100194.09
2023-07-27T07:49:33.966Z,100194.63
2023-07-27T07:52:02.178Z,100185.81
2023-07-27T07:54:30.877Z,100194.00
2023-07-27T07:57:03.339Z,100192.59
2023-07-27T07:59:44.735Z,100196.44
2023-07-27T08:02:20.054Z,100192.25
2023-07-27T08:04:48.177Z,100193.31
2023-07-27T08:07:19.849Z,100186.63
2023-07-27T08:09:47.792Z,100185.47
2023-07-27T08:16:09.586Z,100182.63
2023-07-27T08:18:43.190Z,100174.59
2023-07-27T08:21:11.396Z,100170.69
2023-07-27T08:23:39.539Z,100168.91
2023-07-27T08:26:11.161Z,100169.28
2023-07-27T08:28:41.939Z,100174.13
2023-07-27T08:31:13.453Z,100176.97
2023-07-27T08:33:41.708Z,100177.03
2023-07-27T08:36:09.743Z,100191.56
2023-07-27T08:38:37.785Z,100183.94
2023-07-27T08:41:31.156Z,100176.16
2023-07-27T08:44:02.480Z,100182.72
2023-07-27T08:46:33.420Z,100182.13
2023-07-27T08:49:03.740Z,100181.38
2023-07-27T08:51:35.925Z,100182.19
2023-07-27T08:54:04.121Z,100189.72
2023-07-27T08:56:37.000Z,100178.88
2023-07-27T08:59:28.370Z,100194.63
2023-07-27T09:01:56.586Z,100188.22
2023-07-27T09:04:30.299Z,100181.16
2023-07-27T09:07:09.216Z,100181.38
2023-07-27T09:10:15.130Z,100176.72
2023-07-27T09:12:46.200Z,100175.75
2023-07-27T09:15:22.144Z,100179.25
2023-07-27T09:17:59.734Z,100171.69
2023-07-27T09:20:32.552Z,100171.59
2023-07-27T09:23:00.885Z,100165.97
2023-07-27T09:25:38.405Z,100166.16
2023-07-27T09:28:51.627Z,100166.47
2023-07-27T09:32:16.746Z,100154.72
2023-07-27T09:34:58.045Z,100165.38
2023-07-27T09:37:42.306Z,100164.44
2023-07-27T09:40:30.476Z,100168.66
2023-07-27T09:42:58.762Z,100170.78
2023-07-27T09:46:00.791Z,100161.06
2023-07-27T09:48:33.463Z,100172.31
2023-07-27T09:54:50.401Z,100169.03
2023-07-27T09:57:34.765Z,100179.06
2023-07-27T10:00:07.489Z,100174.53
2023-07-27T10:02:49.436Z,100173.94
2023-07-27T10:05:24.667Z,100175.59
2023-07-27T10:07:54.714Z,100170.47
2023-07-27T10:10:48.115Z,100168.13
2023-07-27T10:13:37.455Z,100179.25
2023-07-27T10:16:09.559Z,100165.78
2023-07-27T10:18:44.991Z,100176.72
2023-07-27T10:21:28.629Z,100178.34
2023-07-27T10:23:59.100Z,100187.03
2023-07-27T10:26:49.185Z,100176.47
2023-07-27T10:29:18.691Z,100173.44
2023-07-27T10:31:48.740Z,100181.53
2023-07-27T10:34:25.416Z,100182.94
2023-07-27T10:36:59.072Z,100181.91
2023-07-27T10:39:32.549Z,100185.06
2023-07-27T10:42:07.326Z,100176.56
2023-07-27T10:44:43.246Z,100179.78
2023-07-27T10:47:12.699Z,100181.22
2023-07-27T10:49:42.274Z,100177.19
2023-07-27T10:52:15.386Z,100187.13
2023-07-27T10:54:46.647Z,100184.47
2023-07-27T10:57:19.188Z,100182.09
2023-07-27T10:59:49.206Z,100185.34
2023-07-27T11:02:19.498Z,100180.53
2023-07-27T11:04:54.779Z,100180.84
2023-07-27T11:07:49.645Z,100179.72
2023-07-27T11:10:33.908Z,100182.63
2023-07-27T11:13:11.374Z,100185.66
2023-07-27T11:15:42.728Z,100176.59
2023-07-27T11:18:22.729Z,100179.88
2023-07-27T11:20:55.078Z,100179.25
2023-07-27T11:23:26.067Z,100177.16
2023-07-27T11:25:54.853Z,100184.78
2023-07-27T11:28:30.718Z,100174.22
2023-07-27T11:31:10.548Z,100177.63
2023-07-27T11:33:39.498Z,100171.53
2023-07-27T11:36:10.451Z,100178.69
2023-07-27T11:38:42.744Z,100177.00
2023-07-27T11:41:36.990Z,100179.19
2023-07-27T11:44:01.470Z,100181.38
2023-07-27T11:46:29.968Z,100177.72
2023-07-27T11:49:06.350Z,100177.09
2023-07-27T11:51:35.512Z,100170.13
2023-07-27T11:54:06.833Z,100171.00
2023-07-27T11:56:44.026Z,100177.31
2023-07-27T12:00:04.166Z,100182.19
2023-07-27T12:02:42.930Z,100173.94
2023-07-27T12:05:24.239Z,100179.66
2023-07-27T12:10:31.475Z,100172.75
2023-07-27T12:15:33.487Z,100170.34
2023-07-27T12:18:04.321Z,100171.22
2023-07-27T12:25:39.953Z,100185.81
2023-07-27T12:30:43.756Z,100182.28
2023-07-27T12:33:12.557Z,100171.91
2023-07-27T12:36:06.474Z,100175.97
2023-07-27T12:41:07.085Z,100173.41
2023-07-27T12:43:35.094Z,100174.22
2023-07-27T12:46:03.323Z,100179.75
2023-07-27T12:48:38.242Z,100175.94
2023-07-27T12:51:09.827Z,100177.97
2023-07-27T12:53:39.679Z,100175.38
2023-07-27T12:56:10.520Z,100181.97
2023-07-27T12:58:38.653Z,100189.44
2023-07-27T13:01:06.842Z,100178.88
2023-07-27T13:03:35.251Z,100180.38
2023-07-27T13:06:05.372Z,100186.94
2023-07-27T13:08:33.450Z,100188.88
2023-07-27T13:11:03.696Z,100193.03
2023-07-27T13:13:33.212Z,100185.56
2023-07-27T13:16:03.343Z,100193.03
2023-07-27T13:18:33.761Z,100184.69
2023-07-27T13:21:02.361Z,100177.44
2023-07-27T13:23:30.324Z,100195.97
2023-07-27T13:25:58.657Z,100185.63
2023-07-27T13:28:30.271Z,100182.38
2023-07-27T13:31:08.318Z,100191.97
2023-07-27T13:33:36.601Z,100193.22
2023-07-27T13:36:07.911Z,100179.28
2023-07-27T13:38:36.135Z,100185.66
2023-07-27T13:41:05.013Z,100186.28
2023-07-27T13:43:34.078Z,100185.72
2023-07-27T13:46:03.934Z,100186.31
2023-07-27T13:48:32.282Z,100192.28
2023-07-27T13:51:03.064Z,100186.66
2023-07-27T13:53:34.226Z,100194.69
2023-07-27T13:56:17.553Z,100185.28
2023-07-27T13:59:03.138Z,100184.56
2023-07-27T14:01:35.393Z,100185.97
2023-07-27T14:04:06.890Z,100201.56
2023-07-27T14:06:35.312Z,100190.00
2023-07-27T14:09:04.707Z,100199.94
2023-07-27T14:11:41.211Z,100188.53
2023-07-27T14:14:14.538Z,100199.25
2023-07-27T14:16:45.833Z,100193.41
2023-07-27T14:19:14.633Z,100207.44
2023-07-27T14:21:52.046Z,100197.09
2023-07-27T14:24:20.363Z,100204.00
2023-07-27T14:26:48.705Z,100211.31
2023-07-27T14:29:43.510Z,100213.06
2023-07-27T14:32:13.205Z,100206.91
2023-07-27T14:34:41.432Z,100207.53
2023-07-27T14:37:09.513Z,100209.81
2023-07-27T14:42:12.376Z,100203.63
2023-07-27T14:44:46.837Z,100204.03
2023-07-27T14:47:25.385Z,100212.44
2023-07-27T14:49:57.997Z,100197.50
2023-07-27T14:52:29.260Z,100206.16
2023-07-27T14:54:58.535Z,100206.91
2023-07-27T14:57:28.998Z,100203.84
2023-07-27T15:02:45.404Z,100210.31
2023-07-27T15:05:25.289Z,100204.72
2023-07-27T15:07:55.989Z,100198.13
2023-07-27T15:10:46.091Z,100199.38
2023-07-27T15:13:20.547Z,100204.72
2023-07-27T15:15:54.574Z,100199.38
2023-07-27T15:18:24.500Z,100191.69
2023-07-27T15:20:57.848Z,100199.13
2023-07-27T15:23:26.700Z,100188.69
2023-07-27T15:25:59.717Z,100193.59
2023-07-27T15:28:33.944Z,100188.00
2023-07-27T15:31:11.895Z,100190.66
2023-07-27T15:33:41.704Z,100196.06
2023-07-27T15:36:10.380Z,100192.94
2023-07-27T15:38:46.151Z,100187.53
2023-07-27T15:41:15.639Z,100180.97
2023-07-27T15:43:43.820Z,100187.00
2023-07-27T15:46:13.503Z,100189.03
2023-07-27T15:48:44.004Z,100184.59
2023-07-27T15:51:12.291Z,100178.75
2023-07-27T15:53:51.458Z,100178.28
2023-07-27T15:56:19.718Z,100186.06
2023-07-27T15:58:47.956Z,100186.16
2023-07-27T16:01:17.733Z,100181.72
2023-07-27T16:03:47.491Z,100180.13
2023-07-27T16:06:15.764Z,100175.34
2023-07-27T16:08:44.047Z,100177.78
2023-07-27T16:11:13.094Z,100167.63
2023-07-27T16:13:43.860Z,100179.47
2023-07-27T16:16:14.401Z,100169.72
2023-07-27T16:18:42.694Z,100171.88
2023-07-27T16:21:15.071Z,100176.34
2023-07-27T16:23:43.191Z,100160.44
2023-07-27T16:26:14.564Z,100183.41
2023-07-27T16:28:43.175Z,100186.16
2023-07-27T16:31:16.987Z,100190.00
2023-07-27T16:33:45.134Z,100191.91
2023-07-27T16:36:17.887Z,100185.94
2023-07-27T16:38:46.356Z,100177.66
2023-07-27T16:41:20.317Z,100189.69
2023-07-27T16:43:49.691Z,100183.25
2023-07-27T16:46:21.385Z,100178.75
2023-07-27T16:48:50.032Z,100177.72
2023-07-27T16:51:19.639Z,100177.09
2023-07-27T16:53:47.749Z,100181.31
2023-07-27T16:56:15.898Z,100170.13
2023-07-27T16:58:49.795Z,100170.66
2023-07-27T17:01:19.430Z,100173.22
2023-07-27T17:03:48.785Z,100176.63
2023-07-27T17:06:19.973Z,100175.28
2023-07-27T17:08:48.454Z,100187.81
2023-07-27T17:11:17.675Z,100181.25
2023-07-27T17:13:46.203Z,100182.56
2023-07-27T17:16:15.941Z,100183.97
2023-07-27T17:18:45.421Z,100189.03
2023-07-27T17:21:14.499Z,100183.19
2023-07-27T17:23:44.180Z,100180.13
2023-07-27T17:26:12.555Z,100173.75
2023-07-27T17:28:40.624Z,100183.84
2023-07-27T17:31:08.713Z,100186.75
2023-07-27T17:33:36.808Z,100189.38
2023-07-27T17:36:08.185Z,100183.97
2023-07-27T17:38:46.520Z,100185.28
2023-07-27T17:41:16.085Z,100193.81
2023-07-27T17:43:46.684Z,100194.94
2023-07-27T17:46:17.728Z,100204.25
2023-07-27T17:48:46.318Z,100205.66
2023-07-27T18:12:24.048Z,100219.63
2023-07-27T18:14:52.229Z,100209.31
2023-07-27T18:17:22.437Z,100209.91
2023-07-27T18:19:55.061Z,100205.59
2023-07-27T18:22:23.472Z,100202.84
2023-07-27T18:24:51.867Z,100209.00
2023-07-27T18:27:20.275Z,100217.31
2023-07-27T18:29:48.484Z,100212.91
2023-07-27T18:32:24.075Z,100220.50
2023-07-27T18:34:55.694Z,100224.91
2023-07-27T18:37:24.103Z,100222.88
2023-07-27T18:39:53.754Z,100229.13
2023-07-27T18:42:22.452Z,100234.66
2023-07-27T18:44:53.140Z,100235.81
2023-07-27T18:47:25.836Z,100235.81
2023-07-27T18:49:58.773Z,100233.88
2023-07-27T18:52:33.354Z,100232.13
2023-07-27T18:55:04.634Z,100238.56
2023-07-27T18:57:37.331Z,100239.91
2023-07-27T19:00:06.374Z,100255.16
2023-07-27T19:02:34.699Z,100244.72
2023-07-27T19:05:04.268Z,100251.47
2023-07-27T19:07:32.430Z,100246.59
2023-07-27T19:10:01.480Z,100253.34
2023-07-27T19:12:29.610Z,100252.31
2023-07-27T19:14:57.661Z,100251.31
2023-07-27T19:17:25.839Z,100258.56
2023-07-27T19:19:53.872Z,100264.41
2023-07-27T19:22:23.320Z,100273.59
2023-07-27T19:24:51.475Z,100268.13
2023-07-27T19:27:24.262Z,100273.94
2023-07-27T19:29:52.860Z,100272.03
2023-07-27T19:32:21.510Z,100269.38
2023-07-27T19:34:50.089Z,100270.56
2023-07-27T19:37:18.309Z,100270.69
2023-07-27T19:39:49.985Z,100281.50
2023-07-27T19:42:18.481Z,100278.34
2023-07-27T19:44:52.145Z,100279.66
2023-07-27T19:47:20.735Z,100284.66
2023-07-27T19:50:03.999Z,100280.03
2023-07-27T19:52:35.563Z,100288.41
2023-07-27T19:55:05.769Z,100285.97
2023-07-27T19:57:34.134Z,100293.72
2023-07-27T20:00:02.474Z,100293.72
2023-07-27T20:02:40.792Z,100294.34
2023-07-27T20:05:09.546Z,100289.63
2023-07-27T20:07:40.176Z,100291.56
2023-07-27T20:10:10.363Z,100296.56
2023-07-27T20:12:38.538Z,100299.41
2023-07-27T20:15:07.671Z,100296.25
2023-07-27T20:17:36.365Z,100293.47
2023-07-27T20:20:08.328Z,100304.75
2023-07-27T20:22:36.810Z,100314.66
2023-07-27T20:25:05.846Z,100311.38
2023-07-27T20:27:35.337Z,100312.84
2023-07-27T20:30:03.582Z,100318.66
2023-07-27T20:32:32.168Z,100314.88
2023-07-27T20:35:00.262Z,100322.03
2023-07-27T20:37:28.396Z,100321.50
2023-07-27T20:39:56.444Z,100313.81
2023-07-27T20:42:24.486Z,100324.25
2023-07-27T20:44:55.760Z,100318.31
2023-07-27T20:47:24.236Z,100318.81
2023-07-27T20:49:52.380Z,100324.63
2023-07-27T20:52:23.375Z,100318.38
2023-07-27T20:54:51.557Z,100326.34
2023-07-27T20:57:19.852Z,100324.38
2023-07-27T20:59:56.705Z,100329.75
2023-07-27T21:02:26.776Z,100332.84
2023-07-27T21:05:02.356Z,100338.41
2023-07-27T21:07:30.476Z,100339.50
2023-07-27T21:10:02.961Z,100337.88
2023-07-27T21:12:31.172Z,100348.38
2023-07-27T21:15:01.183Z,100337.94
2023-07-27T21:17:30.374Z,100345.63
2023-07-27T21:19:58.440Z,100349.50
2023-07-27T21:22:26.745Z,100354.78
2023-07-27T21:24:54.910Z,100351.72
2023-07-27T21:27:22.946Z,100347.41
2023-07-27T21:29:50.963Z,100350.69
2023-07-27T21:32:20.460Z,100359.47
2023-07-27T21:34:48.547Z,100349.56
2023-07-27T21:37:16.695Z,100356.41
2023-07-27T21:39:44.724Z,100353.44
2023-07-27T21:42:12.728Z,100352.09
2023-07-27T21:44:40.785Z,100345.19
2023-07-27T21:47:08.821Z,100353.44
2023-07-27T21:49:38.237Z,100354.53
2023-07-27T21:52:07.086Z,100354.53
2023-07-27T21:54:38.295Z,100357.31
2023-07-27T21:57:06.908Z,100356.25
2023-07-27T21:59:35.104Z,100356.25
2023-07-27T22:02:05.619Z,100351.34
2023-07-27T22:04:33.773Z,100357.94
2023-07-27T22:07:06.083Z,100354.69
2023-07-27T22:09:34.134Z,100353.03
2023-07-27T22:12:03.163Z,100358.25
2023-07-27T22:14:31.135Z,100356.91
2023-07-27T22:16:59.129Z,100357.50
2023-07-27T22:19:27.170Z,100356.44
2023-07-27T22:21:55.170Z,100358.91
2023-07-27T22:24:24.542Z,100353.69
2023-07-27T22:26:52.933Z,100352.66
2023-07-27T22:29:20.962Z,100344.59
2023-07-27T22:31:49.677Z,100346.88
2023-07-27T22:34:17.702Z,100358.81
2023-07-27T22:36:45.911Z,100360.22
2023-07-27T22:39:13.992Z,100366.53
2023-07-27T22:41:43.415Z,100367.69
2023-07-27T22:44:11.368Z,100359.72
2023-07-27T22:46:39.457Z,100363.31
2023-07-27T22:49:07.558Z,100361.16
2023-07-27T22:51:35.506Z,100364.22
2023-07-27T22:54:03.451Z,100364.53
2023-07-27T22:56:32.959Z,100365.34
2023-07-27T22:59:02.657Z,100371.44
2023-07-27T23:01:30.692Z,100368.47
2023-07-27T23:03:58.667Z,100361.88
2023-07-27T23:06:26.688Z,100371.53
2023-07-27T23:08:54.674Z,100365.78
2023-07-27T23:11:22.652Z,100362.81
2023-07-27T23:13:50.725Z,100374.63
2023-07-27T23:16:20.136Z,100371.13
2023-07-27T23:18:48.302Z,100377.75
2023-07-27T23:21:16.417Z,100366.72
2023-07-27T23:23:44.407Z,100376.38
2023-07-27T23:26:12.510Z,100366.78
2023-07-27T23:28:40.624Z,100372.00
2023-07-27T23:31:08.702Z,100374.25
2023-07-27T23:33:38.108Z,100384.19
2023-07-27T23:36:11.697Z,100388.31
2023-07-27T23:38:40.601Z,100386.38
2023-07-27T23:41:08.672Z,100377.91
2023-07-27T23:43:36.909Z,100381.22
2023-07-27T23:46:04.985Z,100383.44
2023-07-27T23:48:33.172Z,100388.69
2023-07-27T23:51:02.769Z,100383.19
2023-07-27T23:53:30.727Z,100384.00
2023-07-27T23:56:00.525Z,100380.47
2023-07-27T23:58:28.565Z,100387.38
